Time;durP1;ratioP1;P1;durP2;ratioP2;P2;SDS_P1;SDS_P2;PMS_P1;PMS_P2;Temp;Humidity;BMP_temperature;BMP_pressure;BME280_temperature;BME280_humidity;BME280_pressure;Samples;Min_cycle;Max_cycle;Signal;HPM_P1;HPM_P2
2022/11/03 00:01:59;;;;;;;13.52;2.80;;;;;;;15.17;51.62;101446.41;4955484;28;113718;-68
2022/11/03 00:04:26;;;;;;;16.38;2.83;;;;;;;15.20;51.64;101440.06;4955299;28;114673;-68
2022/11/03 00:06:55;;;;;;;8.45;2.28;;;;;;;15.22;51.72;101438.16;4951298;28;123867;-68
2022/11/03 00:09:23;;;;;;;15.88;3.00;;;;;;;15.23;51.63;101433.66;4950012;28;123851;-68
2022/11/03 00:11:50;;;;;;;13.75;2.95;;;;;;;15.23;51.70;101429.19;4949911;28;113188;-68
2022/11/03 00:14:18;;;;;;;15.32;2.05;;;;;;;15.25;51.70;101423.78;4950284;28;113759;-68
2022/11/03 00:16:45;;;;;;;13.63;3.10;;;;;;;15.24;51.80;101430.91;4953506;28;123907;-68
2022/11/03 00:19:15;;;;;;;8.40;2.25;;;;;;;15.25;51.74;101421.94;4955805;28;123674;-68
2022/11/03 00:21:42;;;;;;;10.93;3.17;;;;;;;15.25;51.76;101426.44;4954642;28;114315;-69
2022/11/03 00:24:10;;;;;;;13.32;2.70;;;;;;;15.23;51.76;101423.84;4955106;28;113953;-68
2022/11/03 00:26:38;;;;;;;14.02;2.88;;;;;;;15.24;51.89;101409.56;4951997;28;124338;-69
2022/11/03 00:29:10;;;;;;;10.45;2.20;;;;;;;15.24;51.84;101414.91;4954556;28;124746;-68
2022/11/03 00:31:40;;;;;;;15.45;2.90;;;;;;;15.22;51.93;101405.25;4947648;28;114112;-69
2022/11/03 00:34:07;;;;;;;11.75;1.98;;;;;;;15.22;51.98;101408.81;4955756;28;114212;-69
2022/11/03 00:36:41;;;;;;;13.07;2.67;;;;;;;15.20;52.05;101397.34;4950181;28;124010;-69
2022/11/03 00:39:08;;;;;;;11.10;3.03;;;;;;;15.19;51.97;101395.63;4962069;28;123597;-69
2022/11/03 00:41:36;;;;;;;12.88;2.47;;;;;;;15.20;52.17;101397.34;4951776;28;114475;-69
2022/11/03 00:44:04;;;;;;;9.40;2.58;;;;;;;15.18;52.00;101388.53;4949711;28;112359;-68
2022/11/03 00:46:34;;;;;;;11.45;2.10;;;;;;;15.16;52.09;101379.75;4952218;28;123986;-69
2022/11/03 00:49:03;;;;;;;11.70;2.45;;;;;;;15.16;52.20;101369.09;4956344;28;122838;-69
2022/11/03 00:51:32;;;;;;;12.75;2.70;;;;;;;15.16;52.25;101374.44;4958657;28;114314;-69
2022/11/03 00:54:01;;;;;;;12.07;2.50;;;;;;;15.16;52.21;101366.44;4956277;28;114100;-69
2022/11/03 00:56:32;;;;;;;16.88;3.20;;;;;;;15.17;52.36;101360.16;4957982;28;124384;-69
2022/11/03 00:59:01;;;;;;;11.25;2.70;;;;;;;15.18;52.25;101368.09;4950712;28;124162;-69
2022/11/03 01:01:31;;;;;;;13.88;2.85;;;;;;;15.17;52.35;101354.81;4953836;28;115432;-69
2022/11/03 01:06:50;;;;;;;8.95;2.22;;;;;;;15.15;52.50;101356.72;4958713;28;124716;-69
2022/11/03 01:09:33;;;;;;;13.57;2.38;;;;;;;15.16;52.36;101363.75;4953771;28;123071;-69
2022/11/03 01:12:08;;;;;;;13.63;2.88;;;;;;;15.13;52.40;101348.78;4957242;28;114549;-69
2022/11/03 01:14:50;;;;;;;10.18;2.80;;;;;;;15.12;52.52;101340.88;4951768;28;114359;-68
2022/11/03 01:17:20;;;;;;;9.07;1.98;;;;;;;15.12;52.55;101340.88;4954482;28;124195;-69
2022/11/03 01:19:47;;;;;;;9.20;2.40;;;;;;;15.10;52.61;101332.09;4956324;28;122638;-68
2022/11/03 01:22:15;;;;;;;10.63;2.58;;;;;;;15.10;52.52;101332.09;4954478;28;113969;-69
2022/11/03 01:24:43;;;;;;;15.63;2.50;;;;;;;15.09;52.46;101335.72;4955975;28;113305;-69
2022/11/03 01:27:12;;;;;;;12.52;2.55;;;;;;;15.08;52.73;101328.66;4953659;28;124978;-69
2022/11/03 01:29:39;;;;;;;15.02;2.47;;;;;;;15.07;52.74;101326.91;4956651;28;125213;-70
2022/11/03 01:32:07;;;;;;;10.60;2.28;;;;;;;15.07;52.81;101321.59;4958327;28;114098;-69
2022/11/03 01:34:35;;;;;;;11.77;2.63;;;;;;;15.07;52.92;101321.59;4967508;28;113906;-69
2022/11/03 01:37:03;;;;;;;11.50;2.47;;;;;;;15.06;53.05;101309.22;4954623;28;124272;-69
2022/11/03 01:39:30;;;;;;;10.30;2.35;;;;;;;15.07;52.99;101310.91;4953398;28;123659;-68
2022/11/03 01:41:57;;;;;;;13.18;2.53;;;;;;;15.07;52.94;101300.25;4960335;28;114864;-68
2022/11/03 01:44:27;;;;;;;9.82;2.22;;;;;;;15.07;53.06;101305.56;4956299;28;114199;-68
2022/11/03 01:47:13;;;;;;;9.65;2.63;;;;;;;15.07;53.06;101289.56;4966294;28;125261;-69
2022/11/03 01:49:52;;;;;;;8.68;2.38;;;;;;;15.09;53.03;101293.03;4960585;28;124482;-69
2022/11/03 01:52:38;;;;;;;11.90;2.40;;;;;;;15.08;53.11;101288.63;4957818;28;114113;-69
2022/11/03 01:55:10;;;;;;;11.90;2.30;;;;;;;15.08;53.12;101285.97;4948832;28;114508;-69
2022/11/03 01:57:42;;;;;;;9.98;2.30;;;;;;;15.09;53.12;101287.72;4952005;28;123649;-70
2022/11/03 02:00:10;;;;;;;10.07;1.92;;;;;;;15.11;53.04;101283.13;4954946;28;123788;-69
2022/11/03 02:02:41;;;;;;;11.82;2.33;;;;;;;15.11;53.16;101280.47;4958913;28;114676;-70
2022/11/03 02:05:11;;;;;;;7.95;2.10;;;;;;;15.11;53.08;101275.13;4956834;28;114101;-67
2022/11/03 02:07:47;;;;;;;11.23;2.53;;;;;;;15.12;53.21;101267.00;4957708;28;123842;-67
2022/11/03 02:10:14;;;;;;;11.65;2.60;;;;;;;15.13;53.00;101257.22;4952083;28;123923;-67
2022/11/03 02:12:42;;;;;;;8.23;1.88;;;;;;;15.13;53.00;101257.22;4952261;28;113729;-67
2022/11/03 02:15:12;;;;;;;12.60;2.30;;;;;;;15.12;53.02;101251.00;4951670;28;113687;-67
2022/11/03 02:17:41;;;;;;;14.00;2.85;;;;;;;15.13;53.08;101251.91;4952254;28;124052;-67
2022/11/03 02:20:18;;;;;;;10.43;2.40;;;;;;;15.10;53.11;101257.41;4950593;28;123628;-67
2022/11/03 02:23:02;;;;;;;7.60;1.58;;;;;;;15.12;53.00;101250.16;4956671;28;113576;-67
2022/11/03 02:25:41;;;;;;;11.90;2.78;;;;;;;15.11;53.12;101243.13;4955907;28;114293;-67
2022/11/03 02:28:10;;;;;;;12.02;2.63;;;;;;;15.10;52.91;101246.72;4967823;28;123118;-67
2022/11/03 02:30:44;;;;;;;7.82;2.00;;;;;;;15.10;53.13;101236.06;4953625;28;123673;-67
2022/11/03 02:33:11;;;;;;;13.05;2.28;;;;;;;15.10;53.13;101236.91;4951945;28;113811;-67
2022/11/03 02:35:48;;;;;;;9.52;2.03;;;;;;;15.10;53.25;101241.38;4953083;28;114033;-67
2022/11/03 02:38:19;;;;;;;11.88;2.30;;;;;;;15.10;52.94;101236.06;4965928;28;123962;-67
2022/11/03 02:40:51;;;;;;;10.02;2.25;;;;;;;15.10;53.12;101225.38;4953005;28;124458;-67
2022/11/03 02:43:21;;;;;;;10.75;2.30;;;;;;;15.09;53.19;101226.34;4953565;28;114103;-67
2022/11/03 02:45:50;;;;;;;14.85;2.67;;;;;;;15.09;53.13;101223.69;4958225;28;115379;-67
2022/11/03 02:48:18;;;;;;;13.82;2.35;;;;;;;15.10;52.98;101217.38;4957520;28;123830;-67
2022/11/03 02:50:46;;;;;;;8.27;2.08;;;;;;;15.10;53.19;101212.03;4951039;28;123672;-67
2022/11/03 02:53:14;;;;;;;12.25;2.45;;;;;;;15.12;53.18;101213.66;4952154;28;114332;-67
2022/11/03 02:56:02;;;;;;;7.65;2.10;;;;;;;15.14;53.29;101200.22;4952488;28;115196;-67
2022/11/03 02:58:58;;;;;;;11.98;2.28;;;;;;;15.17;53.03;101194.72;4949487;28;124644;-67
2022/11/03 03:01:45;;;;;;;9.52;2.20;;;;;;;15.19;53.16;101198.16;4952255;28;124648;-67
2022/11/03 03:04:28;;;;;;;8.50;2.33;;;;;;;15.19;53.09;101192.81;4950079;28;113711;-67
2022/11/03 03:07:04;;;;;;;12.35;2.78;;;;;;;15.20;53.27;101186.56;4951375;28;113849;-67
2022/11/03 03:09:39;;;;;;;12.35;2.67;;;;;;;15.21;53.40;101188.25;4948845;28;123842;-67
2022/11/03 03:12:09;;;;;;;11.52;2.45;;;;;;;15.23;53.50;101178.34;4953921;28;123493;-67
2022/11/03 03:14:40;;;;;;;15.00;2.53;;;;;;;15.25;53.57;101176.44;4952609;28;114070;-67
2022/11/03 03:17:18;;;;;;;8.75;2.00;;;;;;;15.25;53.64;101171.13;4950044;28;114497;-67
2022/11/03 03:19:55;;;;;;;12.98;2.30;;;;;;;15.27;53.61;101177.22;4951097;28;124539;-67
2022/11/03 03:22:54;;;;;;;11.68;2.20;;;;;;;15.27;53.63;101174.53;4950623;28;124245;-67
2022/11/03 03:25:30;;;;;;;10.27;2.05;;;;;;;15.27;53.69;101168.34;4951445;28;114375;-67
2022/11/03 03:28:09;;;;;;;7.93;2.05;;;;;;;15.29;53.67;101171.78;4953433;28;114647;-67
2022/11/03 03:30:39;;;;;;;13.30;2.60;;;;;;;15.28;54.00;101160.25;4965933;28;122381;-67
2022/11/03 03:33:08;;;;;;;11.45;2.38;;;;;;;15.29;53.99;101167.31;4934564;28;123609;-67
2022/11/03 03:35:39;;;;;;;9.57;1.95;;;;;;;15.32;54.00;101156.47;4952630;28;115558;-67
2022/11/03 03:38:12;;;;;;;9.02;2.30;;;;;;;15.34;54.12;101154.56;4968796;28;114305;-67
2022/11/03 03:40:42;;;;;;;16.65;2.55;;;;;;;15.36;54.02;101152.66;4948423;28;122706;-67
2022/11/03 03:43:13;;;;;;;11.30;2.28;;;;;;;15.40;53.94;101144.47;4951360;28;123532;-67
2022/11/03 03:45:43;;;;;;;8.02;2.47;;;;;;;15.41;53.95;101143.50;4966940;28;113258;-67
2022/11/03 03:48:11;;;;;;;13.18;2.38;;;;;;;15.44;53.87;101137.97;4949683;28;114009;-67
2022/11/03 03:50:41;;;;;;;12.15;2.15;;;;;;;15.46;54.06;101130.75;4954046;28;124829;-67
2022/11/03 03:53:12;;;;;;;7.95;2.30;;;;;;;15.48;53.79;101134.16;4973482;28;123118;-67
2022/11/03 03:55:44;;;;;;;9.40;2.00;;;;;;;15.50;53.75;101137.59;4952841;28;114552;-67
2022/11/03 03:58:13;;;;;;;10.45;2.55;;;;;;;15.53;53.71;101137.44;4952922;28;113349;-67
2022/11/03 04:00:40;;;;;;;7.20;1.80;;;;;;;15.55;53.63;101130.19;4953163;28;124925;-67
2022/11/03 04:03:19;;;;;;;8.90;2.22;;;;;;;15.56;53.71;101121.22;4965832;28;123184;-67
2022/11/03 04:05:46;;;;;;;9.20;2.17;;;;;;;15.58;53.49;101119.31;4953066;28;115445;-67
2022/11/03 04:08:15;;;;;;;6.65;1.85;;;;;;;15.61;53.37;101113.78;4954416;28;114155;-70
2022/11/03 04:22:15;;;;;;;6.82;1.77;;;;;;;15.62;53.39;101115.50;4967137;28;124231;-70
2022/11/03 04:24:38;;;;;;;8.88;2.10;;;;;;;15.68;53.36;101098.25;4952957;28;124533;-70
2022/11/03 04:27:17;;;;;;;9.65;2.05;;;;;;;15.68;53.45;101099.09;4973917;28;114951;-68
2022/11/03 04:29:45;;;;;;;7.22;1.80;;;;;;;15.70;53.41;101091.84;4938948;28;114225;-68
2022/11/03 04:32:15;;;;;;;9.77;1.90;;;;;;;15.71;53.38;101098.91;4953048;28;124000;-68
2022/11/03 04:34:46;;;;;;;11.10;2.25;;;;;;;15.71;53.46;101098.91;4957478;28;123953;-68
2022/11/03 04:37:14;;;;;;;8.98;2.05;;;;;;;15.73;53.42;101094.38;4967367;28;113235;-68
2022/11/03 04:39:41;;;;;;;9.50;2.13;;;;;;;15.74;53.35;101090.72;4960882;28;112937;-68
2022/11/03 04:42:19;;;;;;;9.77;1.80;;;;;;;15.75;53.42;101089.78;4962284;28;123722;-68
2022/11/03 04:44:47;;;;;;;8.98;2.70;;;;;;;15.76;53.32;101091.50;4960132;28;123873;-68
2022/11/03 04:47:16;;;;;;;9.60;1.95;;;;;;;15.78;53.27;101083.38;4939503;28;113725;-68
2022/11/03 04:49:46;;;;;;;5.97;1.70;;;;;;;15.80;53.35;101085.97;4956040;28;114687;-68
2022/11/03 04:52:18;;;;;;;9.68;1.70;;;;;;;15.80;53.24;101080.63;4958796;28;124512;-68
2022/11/03 04:54:48;;;;;;;8.30;2.33;;;;;;;15.82;53.38;101065.34;4955479;28;122790;-68
2022/11/03 04:57:16;;;;;;;10.73;2.40;;;;;;;15.82;53.36;101054.66;4958444;28;113523;-68
2022/11/03 04:59:49;;;;;;;7.47;2.00;;;;;;;15.83;53.31;101056.41;4954692;28;113873;-68
2022/11/03 05:02:20;;;;;;;10.32;1.90;;;;;;;15.83;53.44;101059.06;4958796;28;123971;-68
2022/11/03 05:04:47;;;;;;;12.02;2.10;;;;;;;15.83;53.35;101061.75;4968286;28;124552;-68
2022/11/03 05:07:29;;;;;;;9.32;1.80;;;;;;;15.83;53.47;101059.06;4957121;28;114232;-68
2022/11/03 05:09:57;;;;;;;8.30;2.50;;;;;;;15.83;53.41;101053.72;4955579;28;113288;-68
2022/11/03 05:12:24;;;;;;;8.15;1.85;;;;;;;15.84;53.47;101042.06;4956449;28;123781;-68
2022/11/03 05:14:51;;;;;;;8.38;1.63;;;;;;;15.84;53.46;101040.28;4952637;28;124299;-68
2022/11/03 05:17:26;;;;;;;7.43;2.13;;;;;;;15.82;53.45;101042.16;4949439;28;116086;-68
2022/11/03 05:19:58;;;;;;;10.30;1.98;;;;;;;15.83;53.42;101043.03;4957501;28;115454;-68
2022/11/03 05:22:32;;;;;;;8.88;1.95;;;;;;;15.82;53.52;101035.97;4953903;28;123900;-68
2022/11/03 05:25:18;;;;;;;5.13;1.85;;;;;;;15.83;53.64;101024.34;4949302;28;123962;-68
2022/11/03 05:27:45;;;;;;;7.63;1.92;;;;;;;15.83;53.45;101027.03;4951962;28;114121;-68
2022/11/03 05:30:13;;;;;;;9.48;2.17;;;;;;;15.83;53.61;101022.53;4953606;28;113838;-68
2022/11/03 05:32:41;;;;;;;10.80;2.22;;;;;;;15.84;53.58;101023.38;4955178;28;124800;-68
2022/11/03 05:35:19;;;;;;;8.23;1.60;;;;;;;15.82;53.42;101019.94;4961288;28;126735;-68
2022/11/03 05:37:46;;;;;;;10.02;2.20;;;;;;;15.83;53.63;101008.31;4952900;28;115277;-68
2022/11/03 05:40:20;;;;;;;5.90;1.70;;;;;;;15.83;53.75;101011.84;4955747;28;114254;-68
2022/11/03 05:42:52;;;;;;;9.95;2.17;;;;;;;15.83;53.71;101000.31;4954575;28;123932;-68
2022/11/03 05:45:21;;;;;;;12.38;1.80;;;;;;;15.83;53.77;101000.31;4950777;28;123911;-68
2022/11/03 05:47:52;;;;;;;8.57;1.88;;;;;;;15.82;53.38;101001.25;4956316;28;115401;-68
2022/11/03 05:50:20;;;;;;;5.45;1.75;;;;;;;15.80;53.60;100992.50;4969680;28;113998;-67
2022/11/03 05:52:52;;;;;;;6.50;1.70;;;;;;;15.77;53.69;100991.72;4950927;28;123837;-68
2022/11/03 05:55:30;;;;;;;8.50;1.83;;;;;;;15.75;53.55;100987.47;4966899;28;123285;-68
2022/11/03 05:58:00;;;;;;;9.45;2.00;;;;;;;15.73;53.82;100979.53;4955826;28;114356;-68
2022/11/03 06:00:30;;;;;;;8.45;1.67;;;;;;;15.72;53.62;100983.13;4958648;28;115023;-68
2022/11/03 06:02:58;;;;;;;8.90;2.15;;;;;;;15.71;53.84;100992.09;4967135;28;124290;-68
2022/11/03 06:05:26;;;;;;;8.93;2.13;;;;;;;15.69;53.83;100978.00;4951938;28;123797;-68
2022/11/03 06:07:56;;;;;;;7.13;1.77;;;;;;;15.67;53.80;100971.91;4972878;28;115475;-68
2022/11/03 06:10:28;;;;;;;9.68;2.00;;;;;;;15.65;53.82;100971.16;4971216;28;114204;-68
2022/11/03 06:13:04;;;;;;;10.15;2.20;;;;;;;15.64;53.92;100964.06;4950888;28;124724;-68
2022/11/03 06:15:36;;;;;;;9.55;2.03;;;;;;;15.62;54.04;100962.47;4957429;28;123105;-68
2022/11/03 06:18:15;;;;;;;6.93;1.80;;;;;;;15.61;54.07;100964.25;4965694;28;114656;-67
2022/11/03 06:20:51;;;;;;;6.53;1.45;;;;;;;15.62;53.90;100949.97;4949558;28;112884;-68
2022/11/03 06:23:19;;;;;;;10.05;1.95;;;;;;;15.61;54.02;100952.72;4952440;28;124072;-68
2022/11/03 06:25:48;;;;;;;9.98;2.15;;;;;;;15.60;54.13;100957.22;4955062;28;124563;-68
2022/11/03 06:28:27;;;;;;;6.97;1.98;;;;;;;15.60;54.12;100957.22;4955133;28;114667;-68
2022/11/03 06:30:55;;;;;;;9.70;1.90;;;;;;;15.61;54.07;100948.25;4952254;28;113119;-67
2022/11/03 06:33:26;;;;;;;5.75;1.58;;;;;;;15.60;54.09;100946.53;4952664;28;125254;-68
2022/11/03 06:35:59;;;;;;;9.60;1.98;;;;;;;15.61;54.33;100945.56;4954482;28;123646;-68
2022/11/03 06:38:29;;;;;;;7.88;1.85;;;;;;;15.61;54.34;100948.25;4955230;28;114551;-68
2022/11/03 06:40:57;;;;;;;8.88;2.08;;;;;;;15.61;54.21;100948.25;4962708;28;113739;-68
2022/11/03 06:43:27;;;;;;;7.70;1.75;;;;;;;15.61;54.19;100942.91;4953698;28;124698;-68
2022/11/03 06:45:57;;;;;;;11.23;2.10;;;;;;;15.62;54.50;100944.63;4949623;28;124598;-68
2022/11/03 06:48:27;;;;;;;7.25;1.80;;;;;;;15.62;54.48;100933.94;4956328;28;114074;-68
2022/11/03 06:50:56;;;;;;;10.95;2.00;;;;;;;15.63;54.50;100935.66;4962457;28;112883;-68
2022/11/03 06:53:28;;;;;;;6.80;1.65;;;;;;;15.65;54.44;100933.75;4958855;28;124903;-68
2022/11/03 06:55:55;;;;;;;13.70;2.17;;;;;;;15.66;54.50;100929.28;4956238;28;122660;-68
2022/11/03 06:58:27;;;;;;;6.72;1.90;;;;;;;15.67;54.60;100931.84;4956967;28;114900;-68
2022/11/03 07:00:57;;;;;;;11.45;2.33;;;;;;;15.69;54.71;100929.94;4953453;28;115289;-68
2022/11/03 07:03:36;;;;;;;11.73;2.00;;;;;;;15.69;54.78;100924.59;4954579;28;123944;-68
2022/11/03 07:06:09;;;;;;;7.65;1.80;;;;;;;15.72;54.88;100918.19;4953154;28;123090;-68
2022/11/03 07:08:42;;;;;;;8.68;1.88;;;;;;;15.73;54.82;100919.91;4949541;28;113567;-68
2022/11/03 07:11:15;;;;;;;9.15;1.98;;;;;;;15.74;54.96;100917.16;4954430;28;114209;-68
2022/11/03 07:13:42;;;;;;;10.63;2.03;;;;;;;15.77;54.94;100916.97;4952414;28;122274;-68
2022/11/03 07:16:33;;;;;;;10.50;2.17;;;;;;;15.80;54.93;100917.72;4949390;28;124431;-68
2022/11/03 07:19:12;;;;;;;7.90;2.20;;;;;;;15.82;54.98;100923.81;4936122;28;113196;-68
2022/11/03 07:21:44;;;;;;;8.25;2.20;;;;;;;15.84;54.92;100922.75;4952871;28;113209;-68
2022/11/03 07:24:42;;;;;;;9.18;2.10;;;;;;;15.86;54.73;100925.31;4951470;28;125161;-68
2022/11/03 07:27:20;;;;;;;9.85;2.17;;;;;;;15.89;54.82;100914.44;4954239;28;123639;-68
2022/11/03 07:29:49;;;;;;;8.27;2.08;;;;;;;15.91;54.91;100917.84;4954825;28;114844;-68
2022/11/03 07:32:28;;;;;;;8.20;1.83;;;;;;;15.91;54.90;100917.84;4950785;28;114388;-68
2022/11/03 07:35:23;;;;;;;8.43;2.03;;;;;;;15.93;54.82;100911.44;4952500;28;125111;-69
2022/11/03 07:37:51;;;;;;;9.95;2.05;;;;;;;15.95;54.75;100903.34;4950223;28;125163;-69
2022/11/03 07:40:26;;;;;;;6.30;1.55;;;;;;;15.98;55.02;100903.13;4956601;28;114072;-68
2022/11/03 07:43:10;;;;;;;8.15;2.00;;;;;;;16.01;54.84;100897.59;4957765;28;113628;-69
2022/11/03 07:45:41;;;;;;;8.85;2.17;;;;;;;16.04;54.88;100889.38;4951205;28;123465;-69
2022/11/03 07:48:35;;;;;;;10.68;2.15;;;;;;;16.06;54.75;100895.47;4957420;28;123901;-69
2022/11/03 07:51:39;;;;;;;8.57;2.05;;;;;;;16.08;54.90;100890.88;4948663;28;114559;-69
2022/11/03 07:54:06;;;;;;;9.20;1.98;;;;;;;16.11;54.89;100888.00;4956466;28;114960;-69
2022/11/03 07:56:55;;;;;;;8.93;2.22;;;;;;;16.12;54.78;100879.03;4955191;28;124468;-69
2022/11/03 07:59:52;;;;;;;12.40;2.10;;;;;;;16.14;54.87;100877.13;4950499;28;123998;-69
2022/11/03 08:02:30;;;;;;;8.65;2.28;;;;;;;16.17;54.62;100875.19;4954836;28;114451;-69
2022/11/03 08:04:59;;;;;;;10.52;1.92;;;;;;;16.19;54.89;100867.91;4957818;28;113948;-68
2022/11/03 08:07:30;;;;;;;7.57;1.80;;;;;;;16.21;54.61;100882.88;4958557;28;123762;-68
2022/11/03 08:09:57;;;;;;;11.55;2.25;;;;;;;16.23;54.74;100874.75;4969139;28;123606;-68
2022/11/03 08:12:24;;;;;;;9.85;2.10;;;;;;;16.25;54.78;100888.88;4962476;28;114496;-68
2022/11/03 08:14:51;;;;;;;7.80;2.35;;;;;;;16.28;54.94;100883.31;4970247;28;115876;-69
2022/11/03 08:17:18;;;;;;;10.60;1.90;;;;;;;16.33;54.76;100875.81;4977641;28;123602;-68
2022/11/03 08:19:45;;;;;;;9.05;2.05;;;;;;;16.37;54.61;100881.81;4977245;28;123926;-68
2022/11/03 08:22:12;;;;;;;8.63;1.95;;;;;;;16.39;54.71;100875.44;4971249;28;114844;-69
2022/11/03 08:24:39;;;;;;;7.82;2.30;;;;;;;16.42;54.63;100874.34;4967491;28;113014;-68
2022/11/03 08:27:06;;;;;;;10.60;2.28;;;;;;;16.45;54.55;100864.31;4971615;28;124103;-70
2022/11/03 08:29:33;;;;;;;8.25;2.08;;;;;;;16.47;54.59;100865.06;4966442;28;123851;-68
2022/11/03 08:32:00;;;;;;;8.30;2.45;;;;;;;16.48;54.55;100853.41;4970190;28;113437;-69
2022/11/03 08:34:27;;;;;;;5.45;1.90;;;;;;;16.50;54.52;100831.88;4964538;28;113992;-69
2022/11/03 08:36:54;;;;;;;6.70;2.42;;;;;;;16.52;54.56;100841.53;4964269;28;124594;-69
2022/11/03 08:39:21;;;;;;;9.43;2.05;;;;;;;16.53;54.32;100824.50;4972469;28;123703;-68
2022/11/03 08:41:48;;;;;;;6.82;1.95;;;;;;;16.55;54.54;100822.56;4970865;28;115458;-69
2022/11/03 08:44:15;;;;;;;10.10;2.15;;;;;;;16.58;54.27;100820.69;4966320;28;114007;-68
2022/11/03 08:46:42;;;;;;;7.28;1.85;;;;;;;16.58;54.56;100808.16;4961268;28;123851;-68
2022/11/03 08:49:09;;;;;;;10.95;2.25;;;;;;;16.60;54.39;100802.72;4972398;28;122859;-68
2022/11/03 08:51:36;;;;;;;8.43;2.45;;;;;;;16.62;54.28;100795.44;4979932;28;112895;-69
2022/11/03 08:54:10;;;;;;;6.28;2.10;;;;;;;16.65;54.36;100784.50;4958712;28;114047;-68
2022/11/03 08:56:37;;;;;;;9.75;2.90;;;;;;;16.66;54.29;100786.22;4972174;28;124333;-69
2022/11/03 08:59:04;;;;;;;8.88;2.20;;;;;;;16.70;54.24;100777.00;4966414;28;122828;-69
2022/11/03 09:01:31;;;;;;;8.18;2.28;;;;;;;16.71;54.29;100778.72;4952525;28;114275;-69
2022/11/03 09:03:58;;;;;;;8.60;2.20;;;;;;;16.74;54.12;100767.78;4967829;28;111989;-68
2022/11/03 09:06:25;;;;;;;9.27;2.60;;;;;;;16.76;54.20;100760.50;4971495;28;125116;-69
2022/11/03 09:08:52;;;;;;;9.25;2.40;;;;;;;16.79;54.21;100752.28;4969932;28;124036;-68
2022/11/03 09:11:39;;;;;;;7.47;2.25;;;;;;;16.85;54.25;100737.63;4968760;28;113354;-68
2022/11/03 09:14:07;;;;;;;7.35;2.03;;;;;;;16.87;54.04;100725.84;4972265;28;114457;-68
2022/11/03 09:16:34;;;;;;;9.02;2.10;;;;;;;16.91;53.98;100719.31;4970043;28;123471;-69
2022/11/03 09:19:01;;;;;;;6.53;1.67;;;;;;;16.95;53.94;100713.72;4971534;28;124421;-69
2022/11/03 09:21:28;;;;;;;10.07;2.67;;;;;;;16.98;53.95;100726.88;4967574;28;113141;-68
2022/11/03 09:23:58;;;;;;;7.45;2.22;;;;;;;17.02;53.86;100713.16;4982910;28;114104;-68
2022/11/03 09:26:25;;;;;;;9.50;3.33;;;;;;;17.07;53.84;100715.50;4953625;28;124307;-68
2022/11/03 09:28:52;;;;;;;6.70;2.00;;;;;;;17.09;53.80;100701.03;4980546;28;123213;-68
2022/11/03 09:31:19;;;;;;;9.27;2.45;;;;;;;17.12;53.65;100686.56;4971775;28;115270;-68
2022/11/03 09:33:46;;;;;;;10.32;2.10;;;;;;;17.15;53.81;100683.66;4970663;28;115104;-68
2022/11/03 09:36:13;;;;;;;5.88;2.13;;;;;;;17.18;53.74;100674.53;4957197;28;124161;-69
2022/11/03 09:38:40;;;;;;;8.80;2.78;;;;;;;17.22;53.59;100671.53;4954286;28;124451;-69
2022/11/03 09:41:08;;;;;;;6.28;2.17;;;;;;;17.25;53.29;100665.94;4955092;28;114124;-68
2022/11/03 09:43:56;;;;;;;8.63;2.25;;;;;;;17.26;53.35;100656.94;4962930;28;114415;-68
2022/11/03 09:46:25;;;;;;;9.07;2.30;;;;;;;17.29;53.02;100643.31;4952859;28;125176;-69
2022/11/03 09:48:53;;;;;;;8.00;2.40;;;;;;;17.31;53.21;100633.34;4935328;28;123643;-69
2022/11/03 09:51:21;;;;;;;6.20;2.00;;;;;;;17.34;53.06;100637.59;4955658;28;115646;-68
2022/11/03 09:53:48;;;;;;;6.72;2.40;;;;;;;17.35;52.88;100630.41;4970556;28;113777;-68
2022/11/03 09:56:20;;;;;;;8.32;2.05;;;;;;;17.37;52.96;100628.50;4979161;28;124156;-68
2022/11/03 09:58:47;;;;;;;6.40;2.08;;;;;;;17.40;53.00;100629.09;4969039;28;122919;-68
2022/11/03 10:01:20;;;;;;;7.88;2.15;;;;;;;17.43;53.05;100626.19;4954007;28;113213;-68
2022/11/03 10:03:48;;;;;;;7.57;2.08;;;;;;;17.47;53.07;100626.81;4970613;28;113941;-69
2022/11/03 10:06:16;;;;;;;7.05;2.10;;;;;;;17.51;52.81;100622.91;4970759;28;123853;-69
2022/11/03 10:08:45;;;;;;;7.43;2.22;;;;;;;17.53;52.73;100620.97;4970572;28;124611;-69
2022/11/03 10:11:12;;;;;;;15.18;2.40;;;;;;;17.55;52.74;100612.81;4971135;28;114237;-68
2022/11/03 10:13:44;;;;;;;6.40;2.17;;;;;;;17.57;52.78;100611.72;4970646;28;113669;-68
2022/11/03 10:16:17;;;;;;;10.23;2.30;;;;;;;17.60;52.47;100606.13;4950509;28;124640;-68
2022/11/03 10:18:44;;;;;;;8.40;2.22;;;;;;;17.63;52.23;100600.53;4962687;28;124188;-68
2022/11/03 10:21:16;;;;;;;8.30;1.90;;;;;;;17.66;52.06;100600.28;4968818;28;115363;-69
2022/11/03 10:23:44;;;;;;;5.82;1.80;;;;;;;17.68;52.18;100592.97;4985814;28;115447;-68
2022/11/03 10:26:17;;;;;;;5.65;1.73;;;;;;;17.70;51.99;100590.19;4965588;28;122712;-69
2022/11/03 10:29:03;;;;;;;5.15;2.10;;;;;;;17.69;52.00;100583.97;4952331;28;124507;-68
2022/11/03 10:31:40;;;;;;;9.52;2.30;;;;;;;17.69;51.86;100575.09;4968816;28;113417;-68
2022/11/03 10:34:38;;;;;;;7.80;2.00;;;;;;;17.69;51.83;100573.28;4955939;28;114106;-68
2022/11/03 10:37:22;;;;;;;7.60;1.95;;;;;;;17.69;51.88;100567.06;4948988;28;123204;-68
2022/11/03 10:39:51;;;;;;;8.10;2.10;;;;;;;17.70;51.99;100558.88;4952168;28;122388;-69
2022/11/03 10:42:21;;;;;;;7.72;1.90;;;;;;;17.71;51.61;100560.59;4952117;28;114253;-68
2022/11/03 10:44:54;;;;;;;9.32;2.20;;;;;;;17.71;51.88;100541.84;4966435;28;114393;-69
2022/11/03 10:47:24;;;;;;;8.63;2.50;;;;;;;17.71;51.64;100541.84;4961577;28;124079;-68
2022/11/03 10:49:53;;;;;;;8.75;2.00;;;;;;;17.73;51.62;100524.81;4954394;28;123995;-69
2022/11/03 10:52:26;;;;;;;10.73;2.60;;;;;;;17.73;51.51;100514.09;4960046;28;114483;-69
2022/11/03 10:54:56;;;;;;;8.55;2.53;;;;;;;17.74;51.48;100510.44;4967563;28;114442;-69
2022/11/03 10:57:25;;;;;;;7.20;2.60;;;;;;;17.73;51.28;100508.75;4968847;28;123665;-69
2022/11/03 10:59:53;;;;;;;13.05;3.53;;;;;;;17.71;51.33;100507.03;4957698;28;122553;-68
2022/11/03 11:02:22;;;;;;;9.05;2.50;;;;;;;17.73;51.40;100498.03;4966820;28;115717;-68
2022/11/03 11:04:55;;;;;;;5.90;1.90;;;;;;;17.73;51.06;100503.41;4970856;28;113096;-68
2022/11/03 11:07:35;;;;;;;8.80;2.15;;;;;;;17.75;51.32;100485.38;4967011;28;124233;-68
2022/11/03 11:10:19;;;;;;;6.90;2.20;;;;;;;17.76;51.32;100495.09;4968997;28;124281;-68
2022/11/03 11:13:23;;;;;;;5.93;2.20;;;;;;;17.77;51.26;100494.13;4956088;28;115812;-69
2022/11/03 11:15:58;;;;;;;5.05;1.65;;;;;;;17.78;51.20;100501.16;4967394;28;113562;-69
2022/11/03 11:18:28;;;;;;;7.85;2.40;;;;;;;17.82;51.20;100498.13;4967965;28;124386;-68
2022/11/03 11:20:57;;;;;;;4.93;1.80;;;;;;;17.87;51.33;100484.38;4951546;28;124083;-69
2022/11/03 11:23:30;;;;;;;6.22;1.92;;;;;;;17.91;50.98;100496.53;4968809;28;114518;-69
2022/11/03 11:26:09;;;;;;;7.78;2.03;;;;;;;17.96;51.14;100489.00;4969540;28;115424;-69
2022/11/03 11:28:39;;;;;;;6.28;2.00;;;;;;;18.02;51.02;100488.47;4968850;28;123291;-69
2022/11/03 11:31:31;;;;;;;6.72;2.17;;;;;;;18.07;51.11;100480.94;4964612;28;122939;-69
2022/11/03 11:34:38;;;;;;;6.88;1.83;;;;;;;18.16;50.85;100467.72;4955550;28;114095;-68
2022/11/03 11:37:05;;;;;;;4.20;1.88;;;;;;;18.22;50.77;100472.59;4954128;28;114549;-69
2022/11/03 11:39:33;;;;;;;5.13;1.80;;;;;;;18.25;50.41;100462.47;4953274;28;123756;-69
2022/11/03 11:42:04;;;;;;;4.15;1.73;;;;;;;18.31;50.41;100461.13;4963887;28;124341;-69
2022/11/03 11:44:46;;;;;;;7.93;1.60;;;;;;;18.37;50.37;100449.88;4951703;28;114119;-69
2022/11/03 11:47:33;;;;;;;5.72;1.60;;;;;;;18.43;50.28;100438.63;4968007;28;115283;-69
2022/11/03 11:50:06;;;;;;;6.28;1.70;;;;;;;18.49;50.03;100416.63;4952382;28;124124;-69
2022/11/03 11:52:44;;;;;;;6.72;1.40;;;;;;;18.55;49.86;100414.41;4955379;28;126297;-69